sensor_id;sensor_type;location;lat;lon;timestamp;P1;durP1;ratioP1;P2;durP2;ratioP2
64075;SDS011;50327;51.328;12.324;2023-07-30T00:01:29;8.25;;;3.33;;
64075;SDS011;50327;51.328;12.324;2023-07-30T00:03:55;9.13;;;4.03;;
64075;SDS011;50327;51.328;12.324;2023-07-30T00:06:20;12.18;;;3.60;;
64075;SDS011;50327;51.328;12.324;2023-07-30T00:08:46;20.42;;;3.33;;
64075;SDS011;50327;51.328;12.324;2023-07-30T00:11:11;7.75;;;3.45;;
64075;SDS011;50327;51.328;12.324;2023-07-30T00:13:36;7.07;;;3.30;;
64075;SDS011;50327;51.328;12.324;2023-07-30T00:16:02;9.52;;;3.40;;
64075;SDS011;50327;51.328;12.324;2023-07-30T00:18:27;10.52;;;4.03;;
64075;SDS011;50327;51.328;12.324;2023-07-30T00:20:52;9.65;;;3.33;;
64075;SDS011;50327;51.328;12.324;2023-07-30T00:23:18;9.23;;;3.28;;
64075;SDS011;50327;51.328;12.324;2023-07-30T00:25:43;7.13;;;3.80;;
64075;SDS011;50327;51.328;12.324;2023-07-30T00:28:09;11.15;;;3.90;;
64075;SDS011;50327;51.328;12.324;2023-07-30T00:30:34;10.00;;;3.47;;
64075;SDS011;50327;51.328;12.324;2023-07-30T00:32:59;7.40;;;3.70;;
64075;SDS011;50327;51.328;12.324;2023-07-30T00:35:25;8.23;;;4.18;;
64075;SDS011;50327;51.328;12.324;2023-07-30T00:37:50;11.30;;;4.72;;
64075;SDS011;50327;51.328;12.324;2023-07-30T00:40:16;12.30;;;4.65;;
64075;SDS011;50327;51.328;12.324;2023-07-30T00:42:42;13.43;;;3.85;;
64075;SDS011;50327;51.328;12.324;2023-07-30T00:45:08;8.82;;;3.65;;
64075;SDS011;50327;51.328;12.324;2023-07-30T00:47:34;9.25;;;3.45;;
64075;SDS011;50327;51.328;12.324;2023-07-30T00:50:00;6.18;;;3.08;;
64075;SDS011;50327;51.328;12.324;2023-07-30T00:52:26;6.63;;;2.75;;
64075;SDS011;50327;51.328;12.324;2023-07-30T00:54:52;6.40;;;2.75;;
64075;SDS011;50327;51.328;12.324;2023-07-30T00:57:19;11.73;;;3.88;;
64075;SDS011;50327;51.328;12.324;2023-07-30T00:59:46;13.20;;;3.30;;
64075;SDS011;50327;51.328;12.324;2023-07-30T01:02:13;6.70;;;2.88;;
64075;SDS011;50327;51.328;12.324;2023-07-30T01:04:38;6.22;;;3.30;;
64075;SDS011;50327;51.328;12.324;2023-07-30T01:07:05;6.88;;;2.38;;
64075;SDS011;50327;51.328;12.324;2023-07-30T01:09:31;5.80;;;2.70;;
64075;SDS011;50327;51.328;12.324;2023-07-30T01:11:57;6.50;;;3.05;;
64075;SDS011;50327;51.328;12.324;2023-07-30T01:14:24;9.38;;;3.95;;
64075;SDS011;50327;51.328;12.324;2023-07-30T01:16:51;9.55;;;2.90;;
64075;SDS011;50327;51.328;12.324;2023-07-30T01:19:17;12.80;;;3.58;;
64075;SDS011;50327;51.328;12.324;2023-07-30T01:21:42;10.93;;;2.90;;
64075;SDS011;50327;51.328;12.324;2023-07-30T01:24:07;6.85;;;2.95;;
64075;SDS011;50327;51.328;12.324;2023-07-30T01:29:16;8.45;;;3.05;;
64075;SDS011;50327;51.328;12.324;2023-07-30T01:31:48;5.13;;;2.38;;
64075;SDS011;50327;51.328;12.324;2023-07-30T01:34:20;5.25;;;2.45;;
64075;SDS011;50327;51.328;12.324;2023-07-30T01:36:48;6.07;;;2.70;;
64075;SDS011;50327;51.328;12.324;2023-07-30T01:39:14;8.27;;;3.20;;
64075;SDS011;50327;51.328;12.324;2023-07-30T01:41:40;9.43;;;2.92;;
64075;SDS011;50327;51.328;12.324;2023-07-30T01:44:05;7.10;;;2.92;;
64075;SDS011;50327;51.328;12.324;2023-07-30T01:46:31;8.38;;;3.15;;
64075;SDS011;50327;51.328;12.324;2023-07-30T01:48:56;6.43;;;3.35;;
64075;SDS011;50327;51.328;12.324;2023-07-30T01:51:21;4.97;;;2.42;;
64075;SDS011;50327;51.328;12.324;2023-07-30T01:53:47;5.95;;;3.17;;
64075;SDS011;50327;51.328;12.324;2023-07-30T01:56:12;4.65;;;2.72;;
64075;SDS011;50327;51.328;12.324;2023-07-30T01:58:37;5.40;;;2.88;;
64075;SDS011;50327;51.328;12.324;2023-07-30T02:01:03;27.20;;;3.80;;
64075;SDS011;50327;51.328;12.324;2023-07-30T02:03:28;6.63;;;3.30;;
64075;SDS011;50327;51.328;12.324;2023-07-30T02:05:54;4.80;;;2.47;;
64075;SDS011;50327;51.328;12.324;2023-07-30T02:08:19;11.05;;;2.55;;
64075;SDS011;50327;51.328;12.324;2023-07-30T02:10:44;6.72;;;2.58;;
64075;SDS011;50327;51.328;12.324;2023-07-30T02:13:19;6.00;;;2.65;;
64075;SDS011;50327;51.328;12.324;2023-07-30T02:15:45;6.68;;;2.25;;
64075;SDS011;50327;51.328;12.324;2023-07-30T02:18:10;5.63;;;2.55;;
64075;SDS011;50327;51.328;12.324;2023-07-30T02:20:35;9.60;;;2.90;;
64075;SDS011;50327;51.328;12.324;2023-07-30T02:23:01;6.00;;;2.45;;
64075;SDS011;50327;51.328;12.324;2023-07-30T02:25:26;4.10;;;2.30;;
64075;SDS011;50327;51.328;12.324;2023-07-30T02:27:51;7.55;;;2.22;;
64075;SDS011;50327;51.328;12.324;2023-07-30T02:30:17;7.88;;;2.60;;
64075;SDS011;50327;51.328;12.324;2023-07-30T02:32:43;11.65;;;2.38;;
64075;SDS011;50327;51.328;12.324;2023-07-30T02:35:09;10.52;;;2.38;;
64075;SDS011;50327;51.328;12.324;2023-07-30T02:37:34;7.88;;;2.53;;
64075;SDS011;50327;51.328;12.324;2023-07-30T02:39:59;5.60;;;2.55;;
64075;SDS011;50327;51.328;12.324;2023-07-30T02:42:25;7.47;;;2.60;;
64075;SDS011;50327;51.328;12.324;2023-07-30T02:44:50;8.25;;;2.65;;
64075;SDS011;50327;51.328;12.324;2023-07-30T02:47:15;5.45;;;2.63;;
64075;SDS011;50327;51.328;12.324;2023-07-30T02:49:41;26.10;;;5.25;;
64075;SDS011;50327;51.328;12.324;2023-07-30T02:52:06;10.98;;;2.50;;
64075;SDS011;50327;51.328;12.324;2023-07-30T02:54:31;9.38;;;2.17;;
64075;SDS011;50327;51.328;12.324;2023-07-30T02:56:57;15.35;;;2.65;;
64075;SDS011;50327;51.328;12.324;2023-07-30T02:59:22;11.05;;;2.60;;
64075;SDS011;50327;51.328;12.324;2023-07-30T03:01:48;10.93;;;2.72;;
64075;SDS011;50327;51.328;12.324;2023-07-30T03:04:13;7.95;;;2.25;;
64075;SDS011;50327;51.328;12.324;2023-07-30T03:06:38;4.35;;;2.30;;
64075;SDS011;50327;51.328;12.324;2023-07-30T03:09:04;5.50;;;2.58;;
64075;SDS011;50327;51.328;12.324;2023-07-30T03:11:29;4.63;;;2.33;;
64075;SDS011;50327;51.328;12.324;2023-07-30T03:13:54;9.27;;;2.45;;
64075;SDS011;50327;51.328;12.324;2023-07-30T03:16:20;7.15;;;2.60;;
64075;SDS011;50327;51.328;12.324;2023-07-30T03:18:45;9.50;;;2.17;;
64075;SDS011;50327;51.328;12.324;2023-07-30T03:21:10;9.77;;;3.95;;
64075;SDS011;50327;51.328;12.324;2023-07-30T03:23:36;7.55;;;2.92;;
64075;SDS011;50327;51.328;12.324;2023-07-30T03:26:01;6.43;;;2.55;;
64075;SDS011;50327;51.328;12.324;2023-07-30T03:28:26;6.65;;;2.70;;
64075;SDS011;50327;51.328;12.324;2023-07-30T03:30:52;4.82;;;2.65;;
64075;SDS011;50327;51.328;12.324;2023-07-30T03:33:17;9.68;;;2.58;;
64075;SDS011;50327;51.328;12.324;2023-07-30T03:35:42;9.20;;;2.58;;
64075;SDS011;50327;51.328;12.324;2023-07-30T03:38:08;9.93;;;2.92;;
64075;SDS011;50327;51.328;12.324;2023-07-30T03:40:33;5.85;;;2.58;;
64075;SDS011;50327;51.328;12.324;2023-07-30T03:42:58;7.40;;;2.75;;
64075;SDS011;50327;51.328;12.324;2023-07-30T03:45:24;5.40;;;2.78;;
64075;SDS011;50327;51.328;12.324;2023-07-30T03:47:49;5.75;;;2.40;;
64075;SDS011;50327;51.328;12.324;2023-07-30T03:50:14;7.43;;;2.53;;
64075;SDS011;50327;51.328;12.324;2023-07-30T03:52:40;9.43;;;2.80;;
64075;SDS011;50327;51.328;12.324;2023-07-30T03:55:05;10.02;;;2.40;;
64075;SDS011;50327;51.328;12.324;2023-07-30T03:57:31;13.63;;;2.88;;
64075;SDS011;50327;51.328;12.324;2023-07-30T03:59:56;8.32;;;3.05;;
64075;SDS011;50327;51.328;12.324;2023-07-30T04:02:22;5.20;;;2.72;;
64075;SDS011;50327;51.328;12.324;2023-07-30T04:04:47;6.97;;;2.47;;
64075;SDS011;50327;51.328;12.324;2023-07-30T04:07:14;8.00;;;3.05;;
64075;SDS011;50327;51.328;12.324;2023-07-30T04:09:40;6.13;;;2.40;;
64075;SDS011;50327;51.328;12.324;2023-07-30T04:12:05;5.45;;;2.85;;
64075;SDS011;50327;51.328;12.324;2023-07-30T04:14:31;8.35;;;2.95;;
64075;SDS011;50327;51.328;12.324;2023-07-30T04:16:56;5.82;;;2.40;;
64075;SDS011;50327;51.328;12.324;2023-07-30T04:19:21;6.22;;;2.60;;
64075;SDS011;50327;51.328;12.324;2023-07-30T04:21:47;6.22;;;2.80;;
64075;SDS011;50327;51.328;12.324;2023-07-30T04:24:12;11.50;;;2.47;;
64075;SDS011;50327;51.328;12.324;2023-07-30T04:26:37;7.78;;;2.63;;
64075;SDS011;50327;51.328;12.324;2023-07-30T04:29:03;6.25;;;2.90;;
64075;SDS011;50327;51.328;12.324;2023-07-30T04:31:28;9.82;;;2.80;;
64075;SDS011;50327;51.328;12.324;2023-07-30T04:33:54;7.88;;;2.75;;
64075;SDS011;50327;51.328;12.324;2023-07-30T04:36:19;5.90;;;2.92;;
64075;SDS011;50327;51.328;12.324;2023-07-30T04:38:45;10.50;;;2.67;;
64075;SDS011;50327;51.328;12.324;2023-07-30T04:41:10;5.20;;;2.47;;
64075;SDS011;50327;51.328;12.324;2023-07-30T04:43:35;6.55;;;3.10;;
64075;SDS011;50327;51.328;12.324;2023-07-30T04:46:01;7.30;;;3.10;;
64075;SDS011;50327;51.328;12.324;2023-07-30T04:48:26;8.00;;;2.70;;
64075;SDS011;50327;51.328;12.324;2023-07-30T04:50:51;5.18;;;2.53;;
64075;SDS011;50327;51.328;12.324;2023-07-30T04:53:17;5.60;;;2.38;;
64075;SDS011;50327;51.328;12.324;2023-07-30T04:55:43;7.32;;;3.10;;
64075;SDS011;50327;51.328;12.324;2023-07-30T04:58:09;12.27;;;3.28;;
64075;SDS011;50327;51.328;12.324;2023-07-30T05:00:34;8.40;;;3.40;;
64075;SDS011;50327;51.328;12.324;2023-07-30T05:03:00;4.82;;;2.95;;
64075;SDS011;50327;51.328;12.324;2023-07-30T05:05:25;9.23;;;2.90;;
64075;SDS011;50327;51.328;12.324;2023-07-30T05:07:50;7.22;;;2.90;;
64075;SDS011;50327;51.328;12.324;2023-07-30T05:10:16;13.18;;;2.70;;
64075;SDS011;50327;51.328;12.324;2023-07-30T05:12:41;6.13;;;3.47;;
64075;SDS011;50327;51.328;12.324;2023-07-30T05:15:07;11.48;;;4.05;;
64075;SDS011;50327;51.328;12.324;2023-07-30T05:17:32;8.43;;;2.97;;
64075;SDS011;50327;51.328;12.324;2023-07-30T05:19:58;4.78;;;2.60;;
64075;SDS011;50327;51.328;12.324;2023-07-30T05:22:23;7.10;;;2.97;;
64075;SDS011;50327;51.328;12.324;2023-07-30T05:24:50;7.22;;;3.63;;
64075;SDS011;50327;51.328;12.324;2023-07-30T05:27:15;6.70;;;2.78;;
64075;SDS011;50327;51.328;12.324;2023-07-30T05:29:41;6.57;;;2.78;;
64075;SDS011;50327;51.328;12.324;2023-07-30T05:32:07;5.90;;;2.65;;
64075;SDS011;50327;51.328;12.324;2023-07-30T05:34:32;4.85;;;2.78;;
64075;SDS011;50327;51.328;12.324;2023-07-30T05:36:58;5.10;;;2.35;;
64075;SDS011;50327;51.328;12.324;2023-07-30T05:39:23;10.43;;;3.13;;
64075;SDS011;50327;51.328;12.324;2023-07-30T05:41:48;10.70;;;3.08;;
64075;SDS011;50327;51.328;12.324;2023-07-30T05:44:14;12.98;;;2.97;;
64075;SDS011;50327;51.328;12.324;2023-07-30T05:46:39;10.50;;;2.90;;
64075;SDS011;50327;51.328;12.324;2023-07-30T05:49:05;7.72;;;2.95;;
64075;SDS011;50327;51.328;12.324;2023-07-30T05:51:30;6.80;;;3.22;;
64075;SDS011;50327;51.328;12.324;2023-07-30T05:53:55;8.95;;;3.05;;
64075;SDS011;50327;51.328;12.324;2023-07-30T05:56:21;5.38;;;2.65;;
64075;SDS011;50327;51.328;12.324;2023-07-30T05:58:46;5.03;;;2.38;;
64075;SDS011;50327;51.328;12.324;2023-07-30T06:01:11;5.53;;;2.58;;
64075;SDS011;50327;51.328;12.324;2023-07-30T06:03:37;8.82;;;2.92;;
64075;SDS011;50327;51.328;12.324;2023-07-30T06:06:02;8.52;;;2.70;;
64075;SDS011;50327;51.328;12.324;2023-07-30T06:08:28;4.45;;;2.33;;
64075;SDS011;50327;51.328;12.324;2023-07-30T06:10:54;6.43;;;2.00;;
64075;SDS011;50327;51.328;12.324;2023-07-30T06:13:20;5.65;;;2.58;;
64075;SDS011;50327;51.328;12.324;2023-07-30T06:15:46;3.72;;;1.85;;
64075;SDS011;50327;51.328;12.324;2023-07-30T06:18:11;6.03;;;2.15;;
64075;SDS011;50327;51.328;12.324;2023-07-30T06:20:37;9.30;;;2.30;;
64075;SDS011;50327;51.328;12.324;2023-07-30T06:23:02;7.55;;;2.60;;
64075;SDS011;50327;51.328;12.324;2023-07-30T06:25:28;5.95;;;2.70;;
64075;SDS011;50327;51.328;12.324;2023-07-30T06:27:54;9.77;;;3.22;;
64075;SDS011;50327;51.328;12.324;2023-07-30T06:30:22;11.68;;;2.30;;
64075;SDS011;50327;51.328;12.324;2023-07-30T06:32:47;4.82;;;2.45;;
64075;SDS011;50327;51.328;12.324;2023-07-30T06:35:13;25.08;;;3.08;;
64075;SDS011;50327;51.328;12.324;2023-07-30T06:37:38;4.88;;;2.33;;
64075;SDS011;50327;51.328;12.324;2023-07-30T06:40:04;4.97;;;2.28;;
64075;SDS011;50327;51.328;12.324;2023-07-30T06:42:31;3.75;;;1.83;;
64075;SDS011;50327;51.328;12.324;2023-07-30T06:44:56;5.65;;;2.38;;
64075;SDS011;50327;51.328;12.324;2023-07-30T06:47:22;6.10;;;2.50;;
64075;SDS011;50327;51.328;12.324;2023-07-30T06:49:47;4.22;;;2.20;;
64075;SDS011;50327;51.328;12.324;2023-07-30T06:52:12;4.20;;;2.30;;
64075;SDS011;50327;51.328;12.324;2023-07-30T06:54:38;8.63;;;2.50;;
64075;SDS011;50327;51.328;12.324;2023-07-30T06:57:03;4.13;;;2.15;;
64075;SDS011;50327;51.328;12.324;2023-07-30T06:59:28;10.50;;;2.40;;
64075;SDS011;50327;51.328;12.324;2023-07-30T07:01:54;4.32;;;1.70;;
64075;SDS011;50327;51.328;12.324;2023-07-30T07:04:19;4.22;;;2.40;;
64075;SDS011;50327;51.328;12.324;2023-07-30T07:06:45;4.22;;;2.05;;
64075;SDS011;50327;51.328;12.324;2023-07-30T07:09:10;12.68;;;3.70;;
64075;SDS011;50327;51.328;12.324;2023-07-30T07:11:35;4.53;;;2.35;;
64075;SDS011;50327;51.328;12.324;2023-07-30T07:14:01;11.35;;;2.13;;
64075;SDS011;50327;51.328;12.324;2023-07-30T07:16:26;6.35;;;2.08;;
64075;SDS011;50327;51.328;12.324;2023-07-30T07:18:51;4.82;;;2.08;;
64075;SDS011;50327;51.328;12.324;2023-07-30T07:21:17;4.45;;;1.90;;
64075;SDS011;50327;51.328;12.324;2023-07-30T07:23:42;7.22;;;2.60;;
64075;SDS011;50327;51.328;12.324;2023-07-30T07:26:07;6.90;;;2.20;;
64075;SDS011;50327;51.328;12.324;2023-07-30T07:28:33;9.15;;;1.90;;
64075;SDS011;50327;51.328;12.324;2023-07-30T07:30:58;5.22;;;1.98;;
64075;SDS011;50327;51.328;12.324;2023-07-30T07:33:24;4.72;;;2.25;;
64075;SDS011;50327;51.328;12.324;2023-07-30T07:35:49;4.43;;;2.30;;
64075;SDS011;50327;51.328;12.324;2023-07-30T07:38:15;7.10;;;2.40;;
64075;SDS011;50327;51.328;12.324;2023-07-30T07:40:40;6.13;;;2.25;;
64075;SDS011;50327;51.328;12.324;2023-07-30T07:43:06;6.32;;;1.92;;
64075;SDS011;50327;51.328;12.324;2023-07-30T07:45:32;5.97;;;1.95;;
64075;SDS011;50327;51.328;12.324;2023-07-30T07:47:57;6.13;;;2.15;;
64075;SDS011;50327;51.328;12.324;2023-07-30T07:50:23;3.70;;;1.88;;
64075;SDS011;50327;51.328;12.324;2023-07-30T07:52:49;4.65;;;2.40;;
64075;SDS011;50327;51.328;12.324;2023-07-30T07:55:14;9.77;;;2.28;;
64075;SDS011;50327;51.328;12.324;2023-07-30T07:57:39;5.18;;;2.50;;
64075;SDS011;50327;51.328;12.324;2023-07-30T08:00:05;7.43;;;2.35;;
64075;SDS011;50327;51.328;12.324;2023-07-30T08:02:31;6.38;;;2.15;;
64075;SDS011;50327;51.328;12.324;2023-07-30T08:04:57;9.25;;;2.50;;
64075;SDS011;50327;51.328;12.324;2023-07-30T08:07:23;9.85;;;2.53;;
64075;SDS011;50327;51.328;12.324;2023-07-30T08:09:48;10.10;;;2.13;;
64075;SDS011;50327;51.328;12.324;2023-07-30T08:12:13;8.60;;;2.65;;
64075;SDS011;50327;51.328;12.324;2023-07-30T08:14:39;5.18;;;2.42;;
64075;SDS011;50327;51.328;12.324;2023-07-30T08:17:04;6.53;;;2.72;;
64075;SDS011;50327;51.328;12.324;2023-07-30T08:19:30;9.65;;;2.50;;
64075;SDS011;50327;51.328;12.324;2023-07-30T08:21:55;7.47;;;2.92;;
64075;SDS011;50327;51.328;12.324;2023-07-30T08:24:22;6.13;;;2.80;;
64075;SDS011;50327;51.328;12.324;2023-07-30T08:26:47;9.55;;;2.38;;
64075;SDS011;50327;51.328;12.324;2023-07-30T08:29:13;8.45;;;2.47;;
64075;SDS011;50327;51.328;12.324;2023-07-30T08:31:39;4.53;;;2.45;;
64075;SDS011;50327;51.328;12.324;2023-07-30T08:34:05;5.85;;;2.55;;
64075;SDS011;50327;51.328;12.324;2023-07-30T08:36:30;5.60;;;2.90;;
64075;SDS011;50327;51.328;12.324;2023-07-30T08:38:56;10.85;;;2.40;;
64075;SDS011;50327;51.328;12.324;2023-07-30T08:41:21;12.60;;;3.35;;
64075;SDS011;50327;51.328;12.324;2023-07-30T08:43:47;6.32;;;2.10;;
64075;SDS011;50327;51.328;12.324;2023-07-30T08:46:14;6.25;;;2.35;;
64075;SDS011;50327;51.328;12.324;2023-07-30T08:48:40;9.00;;;2.15;;
64075;SDS011;50327;51.328;12.324;2023-07-30T08:51:06;5.00;;;2.35;;
64075;SDS011;50327;51.328;12.324;2023-07-30T08:53:31;7.32;;;2.00;;
64075;SDS011;50327;51.328;12.324;2023-07-30T08:55:57;3.50;;;1.90;;
64075;SDS011;50327;51.328;12.324;2023-07-30T08:58:24;3.92;;;2.08;;
64075;SDS011;50327;51.328;12.324;2023-07-30T09:00:51;6.00;;;1.57;;
64075;SDS011;50327;51.328;12.324;2023-07-30T09:03:20;4.82;;;2.22;;
64075;SDS011;50327;51.328;12.324;2023-07-30T09:05:47;3.17;;;1.97;;
64075;SDS011;50327;51.328;12.324;2023-07-30T09:08:13;4.55;;;1.88;;
64075;SDS011;50327;51.328;12.324;2023-07-30T09:10:39;4.63;;;1.70;;
64075;SDS011;50327;51.328;12.324;2023-07-30T09:13:05;3.95;;;1.95;;
64075;SDS011;50327;51.328;12.324;2023-07-30T09:15:31;6.32;;;2.03;;
64075;SDS011;50327;51.328;12.324;2023-07-30T09:18:06;4.72;;;2.10;;
64075;SDS011;50327;51.328;12.324;2023-07-30T09:20:40;4.60;;;2.25;;
64075;SDS011;50327;51.328;12.324;2023-07-30T09:23:06;3.95;;;1.98;;
64075;SDS011;50327;51.328;12.324;2023-07-30T09:25:33;4.75;;;1.70;;
64075;SDS011;50327;51.328;12.324;2023-07-30T09:27:59;2.85;;;1.67;;
64075;SDS011;50327;51.328;12.324;2023-07-30T09:30:25;2.78;;;1.60;;
64075;SDS011;50327;51.328;12.324;2023-07-30T09:32:52;4.05;;;1.60;;
64075;SDS011;50327;51.328;12.324;2023-07-30T09:35:19;3.38;;;1.55;;
64075;SDS011;50327;51.328;12.324;2023-07-30T09:37:45;10.23;;;2.10;;
64075;SDS011;50327;51.328;12.324;2023-07-30T09:40:12;4.28;;;1.98;;
64075;SDS011;50327;51.328;12.324;2023-07-30T09:42:38;3.10;;;1.70;;
64075;SDS011;50327;51.328;12.324;2023-07-30T09:45:20;3.15;;;1.60;;
64075;SDS011;50327;51.328;12.324;2023-07-30T09:47:48;5.28;;;1.50;;
64075;SDS011;50327;51.328;12.324;2023-07-30T09:50:14;3.60;;;1.83;;
64075;SDS011;50327;51.328;12.324;2023-07-30T09:52:40;6.90;;;1.65;;
64075;SDS011;50327;51.328;12.324;2023-07-30T09:55:07;2.53;;;1.52;;
64075;SDS011;50327;51.328;12.324;2023-07-30T09:57:33;4.22;;;1.42;;
64075;SDS011;50327;51.328;12.324;2023-07-30T09:59:58;3.30;;;1.60;;
64075;SDS011;50327;51.328;12.324;2023-07-30T10:02:24;6.25;;;1.40;;
64075;SDS011;50327;51.328;12.324;2023-07-30T10:04:53;3.80;;;1.88;;
64075;SDS011;50327;51.328;12.324;2023-07-30T10:09:48;2.83;;;1.40;;
64075;SDS011;50327;51.328;12.324;2023-07-30T10:12:20;2.92;;;1.30;;
64075;SDS011;50327;51.328;12.324;2023-07-30T10:14:49;4.55;;;1.55;;
64075;SDS011;50327;51.328;12.324;2023-07-30T10:17:16;2.78;;;1.60;;
64075;SDS011;50327;51.328;12.324;2023-07-30T10:19:43;3.58;;;1.48;;
64075;SDS011;50327;51.328;12.324;2023-07-30T10:24:37;3.53;;;1.20;;
64075;SDS011;50327;51.328;12.324;2023-07-30T10:27:09;2.08;;;1.10;;
64075;SDS011;50327;51.328;12.324;2023-07-30T10:29:39;2.55;;;1.30;;
64075;SDS011;50327;51.328;12.324;2023-07-30T10:32:06;3.03;;;1.17;;
64075;SDS011;50327;51.328;12.324;2023-07-30T10:34:46;3.70;;;1.40;;
64075;SDS011;50327;51.328;12.324;2023-07-30T10:37:18;2.03;;;1.10;;
64075;SDS011;50327;51.328;12.324;2023-07-30T10:39:47;13.63;;;1.65;;
64075;SDS011;50327;51.328;12.324;2023-07-30T10:42:13;3.47;;;0.95;;
64075;SDS011;50327;51.328;12.324;2023-07-30T10:44:48;5.80;;;1.30;;
64075;SDS011;50327;51.328;12.324;2023-07-30T10:47:14;1.85;;;1.00;;
64075;SDS011;50327;51.328;12.324;2023-07-30T10:49:40;3.10;;;1.35;;
64075;SDS011;50327;51.328;12.324;2023-07-30T10:52:08;3.13;;;1.17;;
64075;SDS011;50327;51.328;12.324;2023-07-30T10:54:34;1.70;;;1.10;;
64075;SDS011;50327;51.328;12.324;2023-07-30T10:57:00;4.45;;;1.27;;
64075;SDS011;50327;51.328;12.324;2023-07-30T10:59:26;2.60;;;1.08;;
64075;SDS011;50327;51.328;12.324;2023-07-30T11:01:52;4.03;;;1.30;;
64075;SDS011;50327;51.328;12.324;2023-07-30T11:04:18;5.68;;;1.10;;
64075;SDS011;50327;51.328;12.324;2023-07-30T11:06:49;6.30;;;0.98;;
64075;SDS011;50327;51.328;12.324;2023-07-30T11:09:25;2.67;;;1.00;;
64075;SDS011;50327;51.328;12.324;2023-07-30T11:11:53;2.42;;;1.10;;
64075;SDS011;50327;51.328;12.324;2023-07-30T11:14:21;2.88;;;0.77;;
64075;SDS011;50327;51.328;12.324;2023-07-30T11:16:48;3.33;;;0.88;;
64075;SDS011;50327;51.328;12.324;2023-07-30T11:19:15;2.53;;;0.97;;
64075;SDS011;50327;51.328;12.324;2023-07-30T11:21:48;2.00;;;1.08;;
64075;SDS011;50327;51.328;12.324;2023-07-30T11:24:14;1.92;;;0.85;;
64075;SDS011;50327;51.328;12.324;2023-07-30T11:26:40;2.88;;;1.17;;
64075;SDS011;50327;51.328;12.324;2023-07-30T11:29:15;5.00;;;1.00;;
64075;SDS011;50327;51.328;12.324;2023-07-30T11:31:42;4.13;;;1.23;;
64075;SDS011;50327;51.328;12.324;2023-07-30T11:34:08;5.43;;;1.00;;
64075;SDS011;50327;51.328;12.324;2023-07-30T11:36:34;1.58;;;1.00;;
64075;SDS011;50327;51.328;12.324;2023-07-30T11:39:00;4.93;;;0.88;;
64075;SDS011;50327;51.328;12.324;2023-07-30T11:41:26;4.43;;;1.38;;
64075;SDS011;50327;51.328;12.324;2023-07-30T11:43:52;3.67;;;0.82;;
64075;SDS011;50327;51.328;12.324;2023-07-30T11:46:19;3.92;;;1.10;;
64075;SDS011;50327;51.328;12.324;2023-07-30T11:48:47;7.20;;;1.08;;
64075;SDS011;50327;51.328;12.324;2023-07-30T11:53:59;2.17;;;1.05;;
64075;SDS011;50327;51.328;12.324;2023-07-30T11:58:56;4.63;;;1.38;;
64075;SDS011;50327;51.328;12.324;2023-07-30T12:01:26;7.80;;;1.10;;
64075;SDS011;50327;51.328;12.324;2023-07-30T12:03:57;5.60;;;2.38;;
64075;SDS011;50327;51.328;12.324;2023-07-30T12:06:23;1.98;;;1.00;;
64075;SDS011;50327;51.328;12.324;2023-07-30T12:08:49;2.28;;;1.10;;
64075;SDS011;50327;51.328;12.324;2023-07-30T12:11:16;1.63;;;1.08;;
64075;SDS011;50327;51.328;12.324;2023-07-30T12:13:44;2.38;;;1.00;;
64075;SDS011;50327;51.328;12.324;2023-07-30T12:16:10;3.67;;;0.90;;
64075;SDS011;50327;51.328;12.324;2023-07-30T12:18:37;1.42;;;0.98;;
64075;SDS011;50327;51.328;12.324;2023-07-30T12:21:03;4.03;;;1.20;;
64075;SDS011;50327;51.328;12.324;2023-07-30T12:23:31;2.42;;;1.13;;
64075;SDS011;50327;51.328;12.324;2023-07-30T12:25:57;4.25;;;1.38;;
64075;SDS011;50327;51.328;12.324;2023-07-30T12:28:22;1.02;;;0.88;;
64075;SDS011;50327;51.328;12.324;2023-07-30T12:30:48;4.78;;;1.23;;
64075;SDS011;50327;51.328;12.324;2023-07-30T12:33:13;4.38;;;1.33;;
64075;SDS011;50327;51.328;12.324;2023-07-30T12:35:38;2.75;;;0.98;;
64075;SDS011;50327;51.328;12.324;2023-07-30T12:38:04;1.27;;;1.00;;
64075;SDS011;50327;51.328;12.324;2023-07-30T12:40:29;2.22;;;1.10;;
64075;SDS011;50327;51.328;12.324;2023-07-30T12:42:59;5.70;;;1.10;;
64075;SDS011;50327;51.328;12.324;2023-07-30T12:45:27;2.67;;;1.27;;
64075;SDS011;50327;51.328;12.324;2023-07-30T12:47:53;3.83;;;1.27;;
64075;SDS011;50327;51.328;12.324;2023-07-30T12:50:18;2.40;;;1.17;;
64075;SDS011;50327;51.328;12.324;2023-07-30T12:52:44;3.50;;;1.17;;
64075;SDS011;50327;51.328;12.324;2023-07-30T12:55:09;3.65;;;1.45;;
64075;SDS011;50327;51.328;12.324;2023-07-30T12:57:35;3.63;;;1.13;;
64075;SDS011;50327;51.328;12.324;2023-07-30T13:00:03;9.38;;;1.80;;
64075;SDS011;50327;51.328;12.324;2023-07-30T13:02:30;9.48;;;2.50;;
64075;SDS011;50327;51.328;12.324;2023-07-30T13:04:58;11.65;;;2.00;;
64075;SDS011;50327;51.328;12.324;2023-07-30T13:07:24;12.82;;;1.55;;
64075;SDS011;50327;51.328;12.324;2023-07-30T13:09:54;7.45;;;1.98;;
64075;SDS011;50327;51.328;12.324;2023-07-30T13:12:30;16.13;;;1.85;;
64075;SDS011;50327;51.328;12.324;2023-07-30T13:14:56;4.93;;;1.85;;
64075;SDS011;50327;51.328;12.324;2023-07-30T13:17:21;6.50;;;1.80;;
64075;SDS011;50327;51.328;12.324;2023-07-30T13:19:46;5.63;;;2.00;;
64075;SDS011;50327;51.328;12.324;2023-07-30T13:22:12;5.60;;;2.30;;
64075;SDS011;50327;51.328;12.324;2023-07-30T13:24:37;5.28;;;1.90;;
64075;SDS011;50327;51.328;12.324;2023-07-30T13:27:04;6.45;;;1.90;;
64075;SDS011;50327;51.328;12.324;2023-07-30T13:29:30;4.15;;;1.90;;
64075;SDS011;50327;51.328;12.324;2023-07-30T13:31:56;4.97;;;1.80;;
64075;SDS011;50327;51.328;12.324;2023-07-30T13:34:21;4.60;;;2.03;;
64075;SDS011;50327;51.328;12.324;2023-07-30T13:36:46;5.00;;;2.08;;
64075;SDS011;50327;51.328;12.324;2023-07-30T13:39:12;7.15;;;2.03;;
64075;SDS011;50327;51.328;12.324;2023-07-30T13:41:37;6.25;;;1.98;;
64075;SDS011;50327;51.328;12.324;2023-07-30T13:44:03;3.35;;;1.90;;
64075;SDS011;50327;51.328;12.324;2023-07-30T13:46:28;4.15;;;1.80;;
64075;SDS011;50327;51.328;12.324;2023-07-30T13:48:54;11.77;;;2.05;;
64075;SDS011;50327;51.328;12.324;2023-07-30T13:51:19;8.13;;;1.85;;
64075;SDS011;50327;51.328;12.324;2023-07-30T13:53:44;4.30;;;1.95;;
64075;SDS011;50327;51.328;12.324;2023-07-30T13:56:10;5.20;;;2.13;;
64075;SDS011;50327;51.328;12.324;2023-07-30T13:58:35;4.78;;;2.30;;
64075;SDS011;50327;51.328;12.324;2023-07-30T14:01:00;4.05;;;2.00;;
64075;SDS011;50327;51.328;12.324;2023-07-30T14:03:26;5.53;;;2.28;;
64075;SDS011;50327;51.328;12.324;2023-07-30T14:05:51;5.13;;;2.50;;
64075;SDS011;50327;51.328;12.324;2023-07-30T14:08:16;3.78;;;2.25;;
64075;SDS011;50327;51.328;12.324;2023-07-30T14:10:42;7.90;;;2.13;;
64075;SDS011;50327;51.328;12.324;2023-07-30T14:13:07;5.63;;;2.30;;
64075;SDS011;50327;51.328;12.324;2023-07-30T14:15:33;4.35;;;1.90;;
64075;SDS011;50327;51.328;12.324;2023-07-30T14:17:58;4.53;;;1.73;;
64075;SDS011;50327;51.328;12.324;2023-07-30T14:20:23;5.32;;;1.63;;
64075;SDS011;50327;51.328;12.324;2023-07-30T14:22:49;8.02;;;1.65;;
64075;SDS011;50327;51.328;12.324;2023-07-30T14:25:14;5.47;;;2.00;;
64075;SDS011;50327;51.328;12.324;2023-07-30T14:27:40;4.95;;;1.67;;
64075;SDS011;50327;51.328;12.324;2023-07-30T14:30:06;3.88;;;1.75;;
64075;SDS011;50327;51.328;12.324;2023-07-30T14:32:32;5.07;;;2.00;;
64075;SDS011;50327;51.328;12.324;2023-07-30T14:34:57;5.70;;;1.77;;
64075;SDS011;50327;51.328;12.324;2023-07-30T14:37:22;4.03;;;1.73;;
64075;SDS011;50327;51.328;12.324;2023-07-30T14:39:48;4.55;;;1.58;;